Time;durP1;ratioP1;P1;durP2;ratioP2;P2;SDS_P1;SDS_P2;PMS_P1;PMS_P2;Temp;Humidity;BMP_temperature;BMP_pressure;BME280_temperature;BME280_humidity;BME280_pressure;Samples;Min_cycle;Max_cycle;Signal;HPM_P1;HPM_P2
2022/07/02 00:00:58;;;;;;;21.87;12.60;;;;;;;15.69;100.00;99657.37;1752663;81;20924;-71
2022/07/02 00:03:33;;;;;;;21.35;13.13;;;;;;;15.61;100.00;99660.16;1752987;82;21881;-72
2022/07/02 00:06:01;;;;;;;18.35;12.35;;;;;;;15.55;100.00;99658.57;1752648;82;21486;-72
2022/07/02 00:08:30;;;;;;;20.62;13.32;;;;;;;15.47;100.00;99657.84;1752589;81;20861;-72
2022/07/02 00:10:59;;;;;;;20.30;13.05;;;;;;;15.45;100.00;99663.52;1753005;82;20932;-73
2022/07/02 00:13:27;;;;;;;21.68;13.28;;;;;;;15.45;100.00;99668.92;1753257;81;20892;-71
2022/07/02 00:15:54;;;;;;;17.45;12.25;;;;;;;15.46;100.00;99665.16;1752804;82;23777;-72
2022/07/02 00:18:20;;;;;;;17.05;12.28;;;;;;;15.43;100.00;99664.34;1752921;81;20934;-72
2022/07/02 00:20:47;;;;;;;20.82;11.05;;;;;;;15.39;100.00;99665.47;1752631;81;21451;-72
2022/07/02 00:23:14;;;;;;;15.05;11.55;;;;;;;15.32;100.00;99664.98;1752750;81;20920;-71
2022/07/02 00:25:53;;;;;;;14.78;10.68;;;;;;;15.28;100.00;99662.56;1752824;82;20928;-71
2022/07/02 00:28:22;;;;;;;15.28;9.75;;;;;;;15.27;100.00;99666.37;1752716;82;21209;-73
2022/07/02 00:30:51;;;;;;;15.90;9.95;;;;;;;15.20;100.00;99665.88;1752608;82;21399;-70
2022/07/02 00:33:17;;;;;;;23.02;12.85;;;;;;;15.14;100.00;99669.70;1752673;82;21404;-73
2022/07/02 00:35:44;;;;;;;19.50;12.45;;;;;;;15.16;100.00;99672.93;1753001;82;20964;-72
2022/07/02 00:38:12;;;;;;;20.40;11.43;;;;;;;15.15;100.00;99677.53;1753000;81;20944;-73
2022/07/02 00:40:38;;;;;;;18.10;11.90;;;;;;;15.09;100.00;99679.19;1752965;81;21133;-72
2022/07/02 00:43:06;;;;;;;18.75;11.83;;;;;;;15.05;100.00;99674.91;1752962;81;20896;-72
2022/07/02 00:45:34;;;;;;;27.63;18.03;;;;;;;14.98;100.00;99665.75;1752832;82;21054;-72
2022/07/02 00:48:01;;;;;;;28.85;18.12;;;;;;;14.90;100.00;99660.95;1766402;81;20880;-71
2022/07/02 00:50:28;;;;;;;27.93;18.07;;;;;;;14.87;100.00;99660.68;1766854;81;20884;-73
2022/07/02 00:52:55;;;;;;;33.42;22.50;;;;;;;14.84;100.00;99663.40;1766325;81;21219;-73
2022/07/02 00:55:22;;;;;;;29.87;19.05;;;;;;;14.79;100.00;99665.58;1766258;81;20880;-72
2022/07/02 00:57:48;;;;;;;34.20;19.30;;;;;;;14.69;100.00;99662.14;1780988;80;20885;-74
2022/07/02 01:00:16;;;;;;;36.68;18.10;;;;;;;14.57;100.00;99659.76;1784489;80;21467;-71
2022/07/02 01:02:47;;;;;;;26.77;17.80;;;;;;;14.51;100.00;99671.11;1784392;80;20995;-73
2022/07/02 01:05:19;;;;;;;29.40;19.25;;;;;;;14.49;100.00;99665.17;1783251;80;21255;-73
2022/07/02 01:10:45;;;;;;;33.33;21.48;;;;;;;14.44;100.00;99667.09;1783999;80;21501;-72
2022/07/02 01:13:13;;;;;;;;;;;;;;;14.44;100.00;99658.98;1786748;80;20995;-74
2022/07/02 01:15:40;;;;;;;23.75;15.03;;;;;;;14.39;100.00;99661.17;1784425;80;20171;-71
2022/07/02 01:18:07;;;;;;;23.87;15.32;;;;;;;14.39;100.00;99666.56;1784027;80;21250;-72
2022/07/02 01:20:34;;;;;;;28.57;18.23;;;;;;;14.37;100.00;99672.23;1784120;80;20957;-70
2022/07/02 01:23:01;;;;;;;21.33;14.00;;;;;;;14.34;100.00;99671.98;1783980;80;20889;-71
2022/07/02 01:25:28;;;;;;;14.90;11.38;;;;;;;14.40;100.00;99679.52;1784148;80;20881;-71
2022/07/02 01:27:55;;;;;;;14.30;10.60;;;;;;;14.44;100.00;99680.59;1784276;80;20940;-73
2022/07/02 01:30:22;;;;;;;12.05;8.93;;;;;;;14.47;100.00;99677.33;1784150;80;21130;-73
2022/07/02 01:32:50;;;;;;;8.90;7.95;;;;;;;14.47;100.00;99678.69;1784279;80;20897;-72
2022/07/02 01:35:17;;;;;;;10.98;8.00;;;;;;;14.53;100.00;99681.13;1759899;81;20945;-73
2022/07/02 01:37:44;;;;;;;9.98;8.33;;;;;;;14.58;100.00;99685.16;1798109;79;20936;-70
2022/07/02 01:40:11;;;;;;;10.30;7.92;;;;;;;14.67;100.00;99684.56;1797810;79;20908;-73
2022/07/02 01:42:38;;;;;;;11.03;8.20;;;;;;;14.73;100.00;99684.82;1798303;79;22253;-70
2022/07/02 01:45:06;;;;;;;9.60;7.95;;;;;;;14.81;100.00;99683.43;1766678;79;20983;-73
2022/07/02 01:47:33;;;;;;;17.37;9.23;;;;;;;14.85;100.00;99686.65;1790692;79;21003;-70
2022/07/02 01:50:01;;;;;;;9.58;8.10;;;;;;;14.82;100.00;99692.62;1788711;80;20920;-72
2022/07/02 01:52:28;;;;;;;13.78;8.35;;;;;;;14.75;100.00;99683.45;1789174;80;20888;-73
2022/07/02 01:54:55;;;;;;;10.48;8.83;;;;;;;14.68;100.00;99696.45;1788702;80;21229;-72
2022/07/02 01:57:22;;;;;;;14.07;9.33;;;;;;;14.57;100.00;99692.17;1766090;80;20912;-72
2022/07/02 01:59:48;;;;;;;13.38;9.38;;;;;;;14.50;100.00;99691.62;1757302;81;20881;-73
2022/07/02 02:02:15;;;;;;;11.75;10.05;;;;;;;14.47;100.00;99688.94;1757610;81;20888;-71
2022/07/02 02:04:42;;;;;;;11.22;8.68;;;;;;;14.41;100.00;99688.70;1757484;81;20909;-71
2022/07/02 02:07:09;;;;;;;16.57;9.60;;;;;;;14.31;100.00;99691.45;1757728;81;21071;-70
2022/07/02 02:09:36;;;;;;;15.15;9.10;;;;;;;14.25;100.00;99689.28;1757417;81;20924;-72
2022/07/02 02:12:05;;;;;;;11.50;8.13;;;;;;;14.25;100.00;99697.38;1757532;81;20931;-72
2022/07/02 02:14:32;;;;;;;12.28;7.95;;;;;;;14.25;100.00;99697.38;1757449;81;20931;-71
2022/07/02 02:16:59;;;;;;;13.40;9.23;;;;;;;14.24;100.00;99699.83;1723865;83;21474;-71
2022/07/02 02:19:26;;;;;;;13.13;8.48;;;;;;;14.23;100.00;99702.24;1691187;84;21263;-71
2022/07/02 02:21:53;;;;;;;12.70;10.63;;;;;;;14.25;100.00;99701.43;1723738;83;21011;-70
2022/07/02 02:24:20;;;;;;;10.72;8.33;;;;;;;14.33;100.00;99706.80;1731498;83;20924;-74
2022/07/02 02:26:47;;;;;;;11.15;8.50;;;;;;;14.45;100.00;99703.25;1724096;83;20960;-72
2022/07/02 02:29:14;;;;;;;16.65;9.28;;;;;;;14.61;100.00;99701.90;1691325;84;20968;-70
2022/07/02 02:31:40;;;;;;;10.93;8.90;;;;;;;14.72;100.00;99704.80;1723902;83;21210;-70
2022/07/02 02:34:07;;;;;;;10.43;8.68;;;;;;;14.84;100.00;99714.73;1691163;84;20952;-72
2022/07/02 02:36:34;;;;;;;12.82;8.20;;;;;;;14.99;100.00;99717.91;1723489;83;20959;-71
2022/07/02 02:39:01;;;;;;;10.35;8.35;;;;;;;15.10;100.00;99717.33;1693178;84;20952;-72
2022/07/02 02:41:28;;;;;;;10.83;8.63;;;;;;;15.28;100.00;99713.14;1691496;84;20972;-72
2022/07/02 02:43:56;;;;;;;12.00;8.35;;;;;;;15.42;100.00;99704.11;1723680;83;21914;-73
2022/07/02 02:46:23;;;;;;;11.10;8.30;;;;;;;15.59;100.00;99710.48;1691265;83;21059;-72
2022/07/02 02:48:50;;;;;;;11.70;8.65;;;;;;;15.75;100.00;99708.50;1723506;83;21423;-72
2022/07/02 02:51:16;;;;;;;9.25;8.23;;;;;;;15.94;100.00;99701.00;1691469;84;20929;-72
2022/07/02 02:53:43;;;;;;;15.68;7.95;;;;;;;16.12;100.00;99707.59;1723657;83;20962;-73
2022/07/02 02:56:11;;;;;;;11.33;7.25;;;;;;;16.26;100.00;99700.40;1749125;81;22071;-71
2022/07/02 02:58:39;;;;;;;11.60;8.35;;;;;;;16.38;100.00;99718.41;1753689;81;20816;-73
2022/07/02 03:01:06;;;;;;;10.23;8.50;;;;;;;16.40;100.00;99722.20;1772686;80;20957;-72
2022/07/02 03:03:33;;;;;;;9.50;8.50;;;;;;;16.36;100.00;99732.78;1753614;81;21018;-71
2022/07/02 03:06:00;;;;;;;12.45;8.70;;;;;;;16.19;100.00;99730.55;1753622;81;20882;-71
2022/07/02 03:08:27;;;;;;;13.88;8.65;;;;;;;16.04;100.00;99734.19;1753504;81;21215;-71
2022/07/02 03:10:54;;;;;;;9.87;7.70;;;;;;;15.91;100.00;99731.36;1772937;81;20948;-73
2022/07/02 03:13:21;;;;;;;11.43;7.37;;;;;;;15.96;100.00;99730.75;1753569;81;20952;-74
2022/07/02 03:15:48;;;;;;;9.03;7.17;;;;;;;16.10;100.00;99726.05;1772724;81;20945;-73
2022/07/02 03:18:15;;;;;;;11.65;7.53;;;;;;;16.25;100.00;99725.88;1753563;81;20887;-73
2022/07/02 03:20:42;;;;;;;9.00;6.80;;;;;;;16.57;100.00;99727.16;1772940;81;21160;-71
2022/07/02 03:23:11;;;;;;;11.60;7.80;;;;;;;16.86;100.00;99728.45;1753612;81;20812;-71
2022/07/02 03:25:39;;;;;;;8.55;7.65;;;;;;;17.13;100.00;99739.47;1772952;81;20905;-72
2022/07/02 03:28:06;;;;;;;12.60;8.23;;;;;;;17.21;100.00;99741.27;1753639;81;20864;-71
2022/07/02 03:30:33;;;;;;;8.33;7.50;;;;;;;17.29;100.00;99744.11;1753740;81;21019;-72
2022/07/02 03:32:59;;;;;;;8.78;7.85;;;;;;;17.48;100.00;99747.38;1772772;80;21142;-71
2022/07/02 03:35:26;;;;;;;8.83;7.17;;;;;;;17.70;100.00;99750.28;1752973;81;20964;-74
2022/07/02 03:37:53;;;;;;;8.83;7.60;;;;;;;17.96;100.00;99743.11;1753588;81;21603;-72
2022/07/02 03:40:20;;;;;;;8.90;7.70;;;;;;;18.21;100.00;99744.00;1753771;81;20831;-75
2022/07/02 03:42:46;;;;;;;9.40;7.42;;;;;;;18.66;100.00;99743.98;1773087;80;21020;-72
2022/07/02 03:45:13;;;;;;;8.90;7.30;;;;;;;18.66;100.00;99743.98;1753688;81;21257;-72
2022/07/02 03:47:40;;;;;;;8.53;6.83;;;;;;;18.87;100.00;99747.92;1777341;80;20862;-72
2022/07/02 03:50:09;;;;;;;8.25;6.95;;;;;;;19.05;100.00;99751.61;1783965;80;21489;-72
2022/07/02 03:52:38;;;;;;;10.53;7.90;;;;;;;19.20;100.00;99758.63;1784318;80;20956;-74
2022/07/02 03:55:07;;;;;;;13.25;7.53;;;;;;;19.21;100.00;99758.91;1784063;80;20996;-74
2022/07/02 03:57:35;;;;;;;8.53;7.17;;;;;;;19.31;100.00;99752.42;1759194;80;21127;-73
2022/07/02 04:00:05;;;;;;;8.53;7.50;;;;;;;19.44;100.00;99750.20;1725667;81;21643;-72
2022/07/02 04:02:34;;;;;;;8.53;7.10;;;;;;;19.58;100.00;99748.80;1762705;81;20956;-74
2022/07/02 04:05:02;;;;;;;8.38;6.55;;;;;;;19.82;100.00;99751.22;1753164;81;20984;-73
2022/07/02 04:07:29;;;;;;;11.00;7.87;;;;;;;20.08;100.00;99766.38;1763759;81;20884;-74
2022/07/02 04:09:55;;;;;;;6.42;5.83;;;;;;;20.41;100.00;99766.88;1730034;83;21175;-73
2022/07/02 04:12:23;;;;;;;9.38;6.40;;;;;;;20.74;100.00;99765.17;1729563;83;21028;-72
2022/07/02 04:14:50;;;;;;;6.87;6.28;;;;;;;20.73;100.00;99770.40;1729673;83;20949;-76
2022/07/02 04:17:17;;;;;;;7.37;6.05;;;;;;;20.79;100.00;99769.12;1729783;83;20969;-73
2022/07/02 04:19:44;;;;;;;10.13;6.20;;;;;;;20.98;100.00;99772.94;1730039;83;21004;-74
2022/07/02 04:22:11;;;;;;;6.72;6.03;;;;;;;21.06;100.00;99776.23;1701049;83;21991;-72
2022/07/02 04:24:38;;;;;;;10.13;5.87;;;;;;;21.37;100.00;99780.22;1730083;83;20952;-70
2022/07/02 04:27:05;;;;;;;6.47;5.53;;;;;;;21.53;100.00;99779.20;1730196;83;20981;-72
2022/07/02 04:29:32;;;;;;;;;;;;;;;21.88;99.51;99790.13;1732400;83;20949;-73
2022/07/02 04:31:59;;;;;;;8.00;5.30;;;;;;;22.14;99.06;99783.80;1730044;83;20470;-74
2022/07/02 04:34:26;;;;;;;8.60;5.65;;;;;;;22.39;95.28;99794.45;1730255;83;21578;-75
2022/07/02 04:36:53;;;;;;;9.75;5.65;;;;;;;22.63;94.12;99794.67;1729642;83;20962;-73
2022/07/02 04:39:20;;;;;;;10.78;6.12;;;;;;;22.78;92.27;99798.79;1730563;83;20893;-75
2022/07/02 04:41:46;;;;;;;6.03;5.45;;;;;;;23.03;91.55;99808.63;1730111;83;21507;-70
2022/07/02 04:44:13;;;;;;;11.95;6.12;;;;;;;23.14;85.45;99803.55;1730017;83;20960;-71
2022/07/02 04:46:40;;;;;;;5.75;5.12;;;;;;;23.14;84.98;99807.09;1730000;83;21161;-74
2022/07/02 04:49:08;;;;;;;6.08;5.33;;;;;;;23.18;85.23;99805.30;1747652;80;21403;-72
2022/07/02 04:51:36;;;;;;;6.67;5.25;;;;;;;23.30;85.38;99802.64;1750101;82;21455;-72
2022/07/02 04:54:03;;;;;;;5.47;4.97;;;;;;;23.32;84.04;99807.22;1750210;82;20881;-72
2022/07/02 04:56:30;;;;;;;6.22;5.62;;;;;;;23.30;87.15;99799.91;1754742;81;21411;-73
2022/07/02 04:58:56;;;;;;;6.33;5.08;;;;;;;23.49;84.33;99811.77;1762012;81;21890;-74
2022/07/02 05:01:23;;;;;;;6.67;5.78;;;;;;;23.62;83.51;99812.63;1761881;81;21003;-73
2022/07/02 05:03:51;;;;;;;6.35;5.75;;;;;;;23.74;84.42;99805.88;1730410;81;20936;-75
2022/07/02 05:06:19;;;;;;;8.68;6.30;;;;;;;24.24;82.28;99808.78;1761895;81;21020;-70
2022/07/02 05:08:49;;;;;;;7.78;5.20;;;;;;;24.72;76.73;99812.75;1762028;81;20948;-73
2022/07/02 05:11:19;;;;;;;6.03;4.97;;;;;;;25.12;77.19;99820.31;1761924;80;21775;-73
2022/07/02 05:13:46;;;;;;;5.50;4.50;;;;;;;25.30;71.69;99830.50;1761821;81;20987;-72
2022/07/02 05:16:13;;;;;;;5.15;4.47;;;;;;;25.35;67.29;99827.51;1762147;81;20967;-73
2022/07/02 05:18:40;;;;;;;5.43;4.53;;;;;;;25.33;67.41;99828.42;1762125;81;20924;-72
2022/07/02 05:21:06;;;;;;;4.80;4.40;;;;;;;25.20;68.12;99831.19;1729891;81;21383;-72
2022/07/02 05:23:34;;;;;;;8.23;4.65;;;;;;;25.21;66.66;99827.89;1762015;81;21127;-74
2022/07/02 05:26:01;;;;;;;6.10;4.67;;;;;;;25.31;68.06;99835.66;1762379;81;21434;-71
2022/07/02 05:28:27;;;;;;;6.97;3.87;;;;;;;25.44;64.38;99834.48;1762296;81;21648;-71
2022/07/02 05:30:54;;;;;;;9.50;4.83;;;;;;;25.26;62.09;99837.27;1730310;81;21501;-72
2022/07/02 05:33:21;;;;;;;5.50;4.50;;;;;;;25.41;64.53;99837.12;1762560;81;20865;-74
2022/07/02 05:35:48;;;;;;;6.70;4.57;;;;;;;25.78;62.44;99842.53;1762216;81;21626;-72
2022/07/02 05:38:15;;;;;;;4.90;4.50;;;;;;;26.02;61.01;99847.17;1762099;81;21059;-73
2022/07/02 05:40:42;;;;;;;5.92;4.30;;;;;;;26.32;61.54;99851.70;1762152;81;20884;-74
2022/07/02 05:43:09;;;;;;;7.58;4.28;;;;;;;26.66;58.89;99855.77;1762056;81;20889;-74
2022/07/02 05:45:36;;;;;;;;;;;;;;;26.96;57.01;99855.90;1764584;80;20944;-75
2022/07/02 05:48:04;;;;;;;7.62;3.87;;;;;;;27.19;56.93;99861.58;1756544;81;21129;-73
2022/07/02 05:50:31;;;;;;;5.08;3.83;;;;;;;27.39;53.93;99872.89;1780521;80;20931;-72
2022/07/02 05:52:57;;;;;;;8.93;3.80;;;;;;;27.50;51.58;99869.77;1781385;80;20913;-75
2022/07/02 05:55:24;;;;;;;8.03;3.30;;;;;;;27.34;52.39;99867.62;1780826;80;21494;-73
2022/07/02 05:57:51;;;;;;;;;;;;;;;27.25;51.81;99871.18;1720834;81;20940;-73
2022/07/02 06:00:18;;;;;;;10.33;6.77;;;;;;;27.56;51.38;99878.55;1720718;82;20107;-76
2022/07/02 06:02:44;;;;;;;8.80;6.65;;;;;;;27.92;50.19;99877.38;1749998;81;20983;-73
2022/07/02 06:07:56;;;;;;;6.40;4.22;;;;;;;27.87;49.22;99876.30;1750176;82;21548;-73
2022/07/02 06:10:24;;;;;;;4.08;3.70;;;;;;;27.99;49.74;99884.42;1749954;82;20933;-74
2022/07/02 06:12:52;;;;;;;11.38;3.83;;;;;;;27.91;49.15;99885.45;1750003;82;21204;-74
2022/07/02 06:15:19;;;;;;;;;;;;;;;27.96;49.95;99887.13;1752649;82;20929;-77
2022/07/02 06:17:47;;;;;;;7.25;5.08;;;;;;;27.92;47.79;99889.00;1749872;82;20448;-72
2022/07/02 06:20:14;;;;;;;6.25;3.62;;;;;;;27.87;48.12;99883.78;1745245;82;21031;-75
2022/07/02 06:22:41;;;;;;;13.03;3.65;;;;;;;27.84;50.21;99877.62;1750221;82;20973;-75
2022/07/02 06:25:09;;;;;;;11.12;4.53;;;;;;;28.08;49.67;99869.63;1750016;82;21901;-77
2022/07/02 06:27:38;;;;;;;4.60;4.17;;;;;;;28.18;49.20;99872.59;1749805;82;21470;-73
2022/07/02 06:30:07;;;;;;;5.92;3.85;;;;;;;28.07;49.53;99890.09;1749918;82;20976;-74
2022/07/02 06:32:36;;;;;;;6.28;3.87;;;;;;;28.44;50.55;99880.74;1721013;82;21071;-74
2022/07/02 06:35:03;;;;;;;4.20;3.80;;;;;;;28.06;47.35;99882.41;1750166;82;20877;-75
2022/07/02 06:37:30;;;;;;;6.75;3.50;;;;;;;28.05;48.92;99867.58;1749917;82;21218;-74
2022/07/02 06:39:57;;;;;;;5.75;3.60;;;;;;;28.23;49.33;99872.88;1749588;82;20936;-77
2022/07/02 06:42:26;;;;;;;4.10;3.58;;;;;;;28.13;48.27;99864.61;1750280;82;20968;-74
2022/07/02 06:44:54;;;;;;;4.50;3.80;;;;;;;28.00;47.85;99871.42;1750111;82;20916;-76
2022/07/02 06:47:21;;;;;;;4.78;3.90;;;;;;;27.96;49.13;99862.30;1749909;82;21514;-74
2022/07/02 06:49:48;;;;;;;4.70;4.30;;;;;;;28.07;50.51;99852.26;1752876;79;21840;-75
2022/07/02 06:52:15;;;;;;;;;;;;;;;28.07;51.67;99853.64;1754987;82;21044;-75
2022/07/02 06:54:42;;;;;;;;;;;;;;;28.31;51.96;99851.73;1755456;82;20114;-75
2022/07/02 06:57:09;;;;;;;;;;;;;;;28.18;51.00;99855.24;1775106;80;20415;-75
2022/07/02 06:59:36;;;;;;;4.60;3.90;;;;;;;28.16;51.36;99863.08;1783822;80;20442;-75
2022/07/02 07:02:04;;;;;;;4.83;3.95;;;;;;;28.19;51.76;99863.72;1783862;80;21239;-72
2022/07/02 07:04:32;;;;;;;4.95;4.12;;;;;;;28.46;49.45;99867.41;1783868;80;20838;-73
2022/07/02 07:07:03;;;;;;;5.60;3.25;;;;;;;28.47;49.52;99876.48;1783814;79;21408;-76
2022/07/02 07:09:28;;;;;;;4.50;3.62;;;;;;;28.52;48.60;99877.00;1784095;79;20885;-76
2022/07/02 07:11:55;;;;;;;7.42;3.62;;;;;;;28.82;48.36;99881.26;1784126;79;20971;-75
2022/07/02 07:14:22;;;;;;;6.50;3.60;;;;;;;29.22;47.26;99884.08;1784108;79;21137;-74
2022/07/02 07:16:50;;;;;;;4.12;3.42;;;;;;;29.46;46.31;99883.45;1783600;80;20870;-75
2022/07/02 07:19:18;;;;;;;4.92;3.30;;;;;;;29.22;45.27;99881.31;1784265;80;20956;-77
2022/07/02 07:21:48;;;;;;;7.65;3.33;;;;;;;28.96;44.33;99877.95;1784103;80;21690;-75
2022/07/02 07:24:14;;;;;;;3.72;2.87;;;;;;;29.22;45.24;99888.23;1784442;80;21541;-72
2022/07/02 07:26:42;;;;;;;5.95;3.45;;;;;;;29.34;42.56;99890.58;1784023;80;21298;-73
2022/07/02 07:29:09;;;;;;;5.20;3.35;;;;;;;29.20;40.56;99889.77;1784516;80;20909;-74
2022/07/02 07:31:37;;;;;;;4.37;2.50;;;;;;;29.05;42.82;99892.87;1785123;80;20925;-73
2022/07/02 07:34:04;;;;;;;5.05;2.75;;;;;;;29.15;41.17;99895.03;1784540;80;20959;-76
2022/07/02 07:36:31;;;;;;;10.08;2.65;;;;;;;29.00;41.72;99891.21;1784568;80;20902;-76
2022/07/02 07:38:58;;;;;;;6.17;3.20;;;;;;;29.39;40.20;99897.17;1784717;80;23504;-72
2022/07/02 07:41:24;;;;;;;;;;;;;;;29.40;41.02;99893.22;1755980;80;21024;-77
2022/07/02 07:43:52;;;;;;;3.85;2.92;;;;;;;29.31;41.57;99899.63;1754087;80;20081;-73
2022/07/02 07:46:20;;;;;;;3.17;2.87;;;;;;;28.48;38.25;99904.33;1754083;80;21489;-76
2022/07/02 07:48:47;;;;;;;3.50;3.08;;;;;;;28.57;39.41;99904.89;1784621;79;21474;-74
2022/07/02 07:51:14;;;;;;;3.83;3.42;;;;;;;28.81;39.68;99903.16;1784340;79;21877;-77
2022/07/02 07:53:43;;;;;;;4.87;3.05;;;;;;;28.29;42.26;99903.14;1784524;80;20869;-77
2022/07/02 07:56:14;;;;;;;4.12;3.62;;;;;;;28.61;43.36;99905.73;1777370;80;21458;-74
2022/07/02 07:58:40;;;;;;;5.08;3.30;;;;;;;28.63;42.71;99905.58;1718359;80;20898;-72
2022/07/02 08:01:10;;;;;;;5.92;4.05;;;;;;;28.18;42.99;99909.84;1720465;80;20820;-75
2022/07/02 08:03:38;;;;;;;6.87;4.03;;;;;;;27.73;44.60;99911.26;1719386;83;21098;-77
2022/07/02 08:06:05;;;;;;;4.33;3.62;;;;;;;27.82;45.36;99905.55;1718252;83;20985;-72
2022/07/02 08:08:33;;;;;;;4.65;3.58;;;;;;;28.28;44.76;99904.31;1689749;83;33706;-75
2022/07/02 08:11:00;;;;;;;8.00;3.70;;;;;;;28.63;43.38;99906.97;1718619;83;20950;-73
2022/07/02 08:13:27;;;;;;;7.27;3.73;;;;;;;28.92;43.28;99915.75;1718726;83;20977;-78
2022/07/02 08:15:55;;;;;;;4.17;2.95;;;;;;;29.17;42.19;99907.89;1717795;83;21381;-75
2022/07/02 08:18:22;;;;;;;3.52;3.20;;;;;;;29.14;41.37;99907.27;1717933;83;20905;-74
2022/07/02 08:20:49;;;;;;;3.40;3.05;;;;;;;28.90;42.33;99919.47;1718150;83;20910;-73
2022/07/02 08:23:18;;;;;;;;;;;;;;;28.53;42.02;99913.69;1720610;83;21001;-78
2022/07/02 08:25:45;;;;;;;9.10;3.35;;;;;;;28.62;41.69;99915.05;1717768;83;20133;-76
2022/07/02 08:28:13;;;;;;;6.55;4.28;;;;;;;28.61;40.42;99912.64;1713017;83;23451;-77
2022/07/02 08:30:40;;;;;;;5.35;4.42;;;;;;;28.75;41.26;99909.34;1717388;83;20958;-73
2022/07/02 08:33:09;;;;;;;7.80;3.08;;;;;;;28.64;42.35;99918.24;1718231;83;21008;-75
2022/07/02 08:35:37;;;;;;;7.53;3.52;;;;;;;28.44;41.77;99920.77;1713626;83;20986;-75
2022/07/02 08:38:04;;;;;;;3.45;3.15;;;;;;;28.67;40.99;99919.47;1717440;83;21121;-75
2022/07/02 08:40:31;;;;;;;3.98;3.25;;;;;;;28.98;40.35;99921.20;1717072;83;21375;-75
